sensor_id;sensor_type;location;lat;lon;timestamp;pressure;altitude;pressure_sealevel;temperature;humidity
84289;BME280;75147;50.294;18.660;2024-02-28T00:00:40;99040.72;;;9.24;87.47
84289;BME280;75147;50.294;18.660;2024-02-28T00:03:06;99038.22;;;9.22;87.13
84289;BME280;75147;50.294;18.660;2024-02-28T00:05:31;99044.59;;;9.18;87.45
84289;BME280;75147;50.294;18.660;2024-02-28T00:07:57;99052.47;;;9.16;87.70
84289;BME280;75147;50.294;18.660;2024-02-28T00:10:22;99045.06;;;9.12;87.90
84289;BME280;75147;50.294;18.660;2024-02-28T00:12:48;99041.00;;;9.08;87.58
84289;BME280;75147;50.294;18.660;2024-02-28T00:15:13;99042.78;;;9.07;88.57
84289;BME280;75147;50.294;18.660;2024-02-28T00:17:40;99042.19;;;9.04;88.20
84289;BME280;75147;50.294;18.660;2024-02-28T00:20:09;99040.53;;;9.03;88.42
84289;BME280;75147;50.294;18.660;2024-02-28T00:22:35;99042.19;;;9.04;87.99
84289;BME280;75147;50.294;18.660;2024-02-28T00:25:04;99047.38;;;9.04;87.97
84289;BME280;75147;50.294;18.660;2024-02-28T00:27:32;99036.19;;;9.03;87.48
84289;BME280;75147;50.294;18.660;2024-02-28T00:29:58;99039.72;;;9.02;87.69
84289;BME280;75147;50.294;18.660;2024-02-28T00:32:23;99046.75;;;9.00;87.57
84289;BME280;75147;50.294;18.660;2024-02-28T00:34:49;99041.81;;;8.97;87.86
84289;BME280;75147;50.294;18.660;2024-02-28T00:37:14;99036.75;;;8.96;87.93
84289;BME280;75147;50.294;18.660;2024-02-28T00:39:39;99034.38;;;8.93;87.79
84289;BME280;75147;50.294;18.660;2024-02-28T00:42:05;99033.66;;;8.91;88.07
84289;BME280;75147;50.294;18.660;2024-02-28T00:44:30;99029.53;;;8.88;88.07
84289;BME280;75147;50.294;18.660;2024-02-28T00:46:56;99035.66;;;8.87;88.06
84289;BME280;75147;50.294;18.660;2024-02-28T00:49:21;99023.03;;;8.83;87.93
84289;BME280;75147;50.294;18.660;2024-02-28T00:51:47;99029.16;;;8.82;88.35
84289;BME280;75147;50.294;18.660;2024-02-28T00:54:12;99032.69;;;8.80;87.89
84289;BME280;75147;50.294;18.660;2024-02-28T00:56:38;99028.69;;;8.76;88.51
84289;BME280;75147;50.294;18.660;2024-02-28T00:59:03;99033.75;;;8.78;88.45
84289;BME280;75147;50.294;18.660;2024-02-28T01:01:28;99028.69;;;8.76;88.42
84289;BME280;75147;50.294;18.660;2024-02-28T01:03:54;99034.06;;;8.73;88.64
84289;BME280;75147;50.294;18.660;2024-02-28T01:06:19;99036.66;;;8.73;88.51
84289;BME280;75147;50.294;18.660;2024-02-28T01:08:45;99031.81;;;8.69;88.18
84289;BME280;75147;50.294;18.660;2024-02-28T01:11:10;99032.75;;;8.68;88.43
84289;BME280;75147;50.294;18.660;2024-02-28T01:13:35;99025.31;;;8.63;88.85
84289;BME280;75147;50.294;18.660;2024-02-28T01:16:01;99028.03;;;8.62;88.33
84289;BME280;75147;50.294;18.660;2024-02-28T01:18:26;99027.53;;;8.57;88.82
84289;BME280;75147;50.294;18.660;2024-02-28T01:20:55;99023.63;;;8.51;88.17
84289;BME280;75147;50.294;18.660;2024-02-28T01:23:21;99027.34;;;8.47;88.44
84289;BME280;75147;50.294;18.660;2024-02-28T01:25:46;99029.34;;;8.44;88.68
84289;BME280;75147;50.294;18.660;2024-02-28T01:28:12;99021.19;;;8.37;88.73
84289;BME280;75147;50.294;18.660;2024-02-28T01:30:37;99017.06;;;8.34;88.50
84289;BME280;75147;50.294;18.660;2024-02-28T01:33:03;99022.47;;;8.31;88.71
84289;BME280;75147;50.294;18.660;2024-02-28T01:35:28;99019.22;;;8.28;88.89
84289;BME280;75147;50.294;18.660;2024-02-28T01:37:54;99013.56;;;8.23;88.79
84289;BME280;75147;50.294;18.660;2024-02-28T01:40:19;99024.16;;;8.20;89.12
84289;BME280;75147;50.294;18.660;2024-02-28T01:42:45;99021.88;;;8.15;89.19
84289;BME280;75147;50.294;18.660;2024-02-28T01:45:13;99022.94;;;8.13;88.92
84289;BME280;75147;50.294;18.660;2024-02-28T01:47:39;99019.81;;;8.08;89.17
84289;BME280;75147;50.294;18.660;2024-02-28T01:50:05;99014.78;;;8.06;89.17
84289;BME280;75147;50.294;18.660;2024-02-28T01:52:31;99013.94;;;8.06;89.24
84289;BME280;75147;50.294;18.660;2024-02-28T01:54:56;99010.63;;;8.04;89.62
84289;BME280;75147;50.294;18.660;2024-02-28T01:57:22;99007.22;;;8.03;89.04
84289;BME280;75147;50.294;18.660;2024-02-28T01:59:48;99007.31;;;8.01;89.31
84289;BME280;75147;50.294;18.660;2024-02-28T02:02:13;98999.44;;;8.03;89.70
84289;BME280;75147;50.294;18.660;2024-02-28T02:04:39;98997.94;;;8.00;89.24
84289;BME280;75147;50.294;18.660;2024-02-28T02:07:06;98995.22;;;8.02;89.65
84289;BME280;75147;50.294;18.660;2024-02-28T02:09:33;99002.47;;;7.97;89.33
84289;BME280;75147;50.294;18.660;2024-02-28T02:11:59;99006.63;;;7.99;89.08
84289;BME280;75147;50.294;18.660;2024-02-28T02:14:25;99005.78;;;7.99;89.43
84289;BME280;75147;50.294;18.660;2024-02-28T02:16:50;98997.19;;;7.98;89.59
84289;BME280;75147;50.294;18.660;2024-02-28T02:19:16;98998.97;;;7.98;89.36
84289;BME280;75147;50.294;18.660;2024-02-28T02:21:58;98996.47;;;7.96;89.73
84289;BME280;75147;50.294;18.660;2024-02-28T02:24:23;98996.38;;;7.98;89.71
84289;BME280;75147;50.294;18.660;2024-02-28T02:26:49;99000.81;;;7.96;89.57
84289;BME280;75147;50.294;18.660;2024-02-28T02:29:17;99004.13;;;7.98;89.47
84289;BME280;75147;50.294;18.660;2024-02-28T02:31:43;99000.63;;;7.99;89.49
84289;BME280;75147;50.294;18.660;2024-02-28T02:34:08;99004.97;;;7.98;89.81
84289;BME280;75147;50.294;18.660;2024-02-28T02:36:33;98995.34;;;8.00;89.56
84289;BME280;75147;50.294;18.660;2024-02-28T02:38:59;99000.63;;;7.99;89.82
84289;BME280;75147;50.294;18.660;2024-02-28T02:41:24;99013.44;;;8.00;89.83
84289;BME280;75147;50.294;18.660;2024-02-28T02:43:50;99004.72;;;8.01;90.05
84289;BME280;75147;50.294;18.660;2024-02-28T02:46:15;99009.91;;;8.01;89.53
84289;BME280;75147;50.294;18.660;2024-02-28T02:48:41;99004.84;;;8.00;89.97
84289;BME280;75147;50.294;18.660;2024-02-28T02:51:06;99003.09;;;8.00;89.54
84289;BME280;75147;50.294;18.660;2024-02-28T02:53:32;99011.56;;;8.02;89.94
84289;BME280;75147;50.294;18.660;2024-02-28T02:55:57;99007.22;;;8.03;89.82
84289;BME280;75147;50.294;18.660;2024-02-28T02:58:22;99005.44;;;8.04;89.79
84289;BME280;75147;50.294;18.660;2024-02-28T03:00:48;99010.63;;;8.04;89.84
84289;BME280;75147;50.294;18.660;2024-02-28T03:03:13;99009.59;;;8.06;89.99
84289;BME280;75147;50.294;18.660;2024-02-28T03:05:38;99001.69;;;8.08;89.83
84289;BME280;75147;50.294;18.660;2024-02-28T03:08:04;99010.28;;;8.08;89.31
84289;BME280;75147;50.294;18.660;2024-02-28T03:10:29;99009.25;;;8.11;89.67
84289;BME280;75147;50.294;18.660;2024-02-28T03:12:55;99015.16;;;8.13;89.42
84289;BME280;75147;50.294;18.660;2024-02-28T03:15:20;99015.16;;;8.13;89.77
84289;BME280;75147;50.294;18.660;2024-02-28T03:17:46;99022.69;;;8.16;89.36
84289;BME280;75147;50.294;18.660;2024-02-28T03:20:11;99019.19;;;8.17;89.48
84289;BME280;75147;50.294;18.660;2024-02-28T03:22:39;99013.16;;;8.16;89.77
84289;BME280;75147;50.294;18.660;2024-02-28T03:25:05;99018.25;;;8.18;89.16
84289;BME280;75147;50.294;18.660;2024-02-28T03:27:32;99020.00;;;8.17;89.79
84289;BME280;75147;50.294;18.660;2024-02-28T03:29:57;99020.00;;;8.17;89.67
84289;BME280;75147;50.294;18.660;2024-02-28T03:32:22;99022.69;;;8.16;89.40
84289;BME280;75147;50.294;18.660;2024-02-28T03:34:48;99026.94;;;8.17;89.98
84289;BME280;75147;50.294;18.660;2024-02-28T03:37:14;99029.53;;;8.17;89.83
84289;BME280;75147;50.294;18.660;2024-02-28T03:39:39;99034.69;;;8.17;89.86
84289;BME280;75147;50.294;18.660;2024-02-28T03:42:05;99028.94;;;8.13;89.40
84289;BME280;75147;50.294;18.660;2024-02-28T03:44:30;99035.63;;;8.16;89.87
84289;BME280;75147;50.294;18.660;2024-02-28T03:46:55;99034.78;;;8.15;89.54
84289;BME280;75147;50.294;18.660;2024-02-28T03:49:21;99035.03;;;8.12;89.47
84289;BME280;75147;50.294;18.660;2024-02-28T03:51:46;99038.22;;;8.16;89.92
84289;BME280;75147;50.294;18.660;2024-02-28T03:54:12;99039.16;;;8.15;89.83
84289;BME280;75147;50.294;18.660;2024-02-28T03:56:37;99037.53;;;8.14;90.11
84289;BME280;75147;50.294;18.660;2024-02-28T03:59:02;99037.53;;;8.14;89.95
84289;BME280;75147;50.294;18.660;2024-02-28T04:01:29;99041.72;;;8.15;89.88
84289;BME280;75147;50.294;18.660;2024-02-28T04:03:54;99046.91;;;8.15;89.96
84289;BME280;75147;50.294;18.660;2024-02-28T04:06:20;99051.25;;;8.14;89.99
84289;BME280;75147;50.294;18.660;2024-02-28T04:08:45;99045.28;;;8.14;89.88
84289;BME280;75147;50.294;18.660;2024-02-28T04:11:11;99051.38;;;8.13;89.94
84289;BME280;75147;50.294;18.660;2024-02-28T04:13:36;99054.91;;;8.12;90.08
84289;BME280;75147;50.294;18.660;2024-02-28T04:16:02;99049.00;;;8.10;89.99
84289;BME280;75147;50.294;18.660;2024-02-28T04:18:31;99055.81;;;8.11;89.84
84289;BME280;75147;50.294;18.660;2024-02-28T04:20:56;99049.00;;;8.10;89.89
84289;BME280;75147;50.294;18.660;2024-02-28T04:23:21;99051.69;;;8.08;90.12
84289;BME280;75147;50.294;18.660;2024-02-28T04:25:47;99063.78;;;8.08;90.02
84289;BME280;75147;50.294;18.660;2024-02-28T04:28:12;99060.50;;;8.06;89.83
84289;BME280;75147;50.294;18.660;2024-02-28T04:30:38;99065.69;;;8.06;90.09
84289;BME280;75147;50.294;18.660;2024-02-28T04:33:03;99061.44;;;8.05;90.11
84289;BME280;75147;50.294;18.660;2024-02-28T04:35:29;99060.69;;;8.02;89.65
84289;BME280;75147;50.294;18.660;2024-02-28T04:37:54;99070.13;;;8.04;89.96
84289;BME280;75147;50.294;18.660;2024-02-28T04:40:19;99077.78;;;8.05;90.03
84289;BME280;75147;50.294;18.660;2024-02-28T04:42:45;99074.38;;;8.05;89.82
84289;BME280;75147;50.294;18.660;2024-02-28T04:45:10;99073.63;;;8.02;90.03
84289;BME280;75147;50.294;18.660;2024-02-28T04:47:37;99073.88;;;7.99;89.74
84289;BME280;75147;50.294;18.660;2024-02-28T04:50:03;99077.47;;;7.97;89.75
84289;BME280;75147;50.294;18.660;2024-02-28T04:52:32;99080.16;;;7.95;89.98
84289;BME280;75147;50.294;18.660;2024-02-28T04:54:57;99079.47;;;7.93;90.25
84289;BME280;75147;50.294;18.660;2024-02-28T04:57:23;99090.72;;;7.92;90.10
84289;BME280;75147;50.294;18.660;2024-02-28T04:59:48;99085.56;;;7.92;89.77
84289;BME280;75147;50.294;18.660;2024-02-28T05:02:14;99089.06;;;7.91;89.94
84289;BME280;75147;50.294;18.660;2024-02-28T05:04:39;99091.03;;;7.88;89.60
84289;BME280;75147;50.294;18.660;2024-02-28T05:07:05;99097.03;;;7.88;89.56
84289;BME280;75147;50.294;18.660;2024-02-28T05:09:33;99097.03;;;7.88;89.19
84289;BME280;75147;50.294;18.660;2024-02-28T05:11:58;99095.41;;;7.87;89.62
84289;BME280;75147;50.294;18.660;2024-02-28T05:14:24;99106.78;;;7.85;89.54
84289;BME280;75147;50.294;18.660;2024-02-28T05:16:50;99099.75;;;7.87;89.51
84289;BME280;75147;50.294;18.660;2024-02-28T05:19:16;99106.78;;;7.85;89.38
84289;BME280;75147;50.294;18.660;2024-02-28T05:21:45;99107.78;;;7.82;89.74
84289;BME280;75147;50.294;18.660;2024-02-28T05:24:11;99104.69;;;7.77;89.89
84289;BME280;75147;50.294;18.660;2024-02-28T05:26:37;99103.28;;;7.73;89.45
84289;BME280;75147;50.294;18.660;2024-02-28T05:29:03;99104.19;;;7.72;89.88
84289;BME280;75147;50.294;18.660;2024-02-28T05:31:30;99108.63;;;7.70;89.31
84289;BME280;75147;50.294;18.660;2024-02-28T05:33:58;99102.03;;;7.66;89.73
84289;BME280;75147;50.294;18.660;2024-02-28T05:36:25;99114.22;;;7.64;90.16
84289;BME280;75147;50.294;18.660;2024-02-28T05:38:51;99115.38;;;7.60;90.00
84289;BME280;75147;50.294;18.660;2024-02-28T05:41:17;99114.63;;;7.58;89.90
84289;BME280;75147;50.294;18.660;2024-02-28T05:43:43;99120.72;;;7.57;90.03
84289;BME280;75147;50.294;18.660;2024-02-28T05:46:09;99121.78;;;7.54;90.03
84289;BME280;75147;50.294;18.660;2024-02-28T05:48:34;99125.38;;;7.52;89.94
84289;BME280;75147;50.294;18.660;2024-02-28T05:51:00;99130.66;;;7.50;90.19
84289;BME280;75147;50.294;18.660;2024-02-28T05:53:26;99131.56;;;7.49;90.06
84289;BME280;75147;50.294;18.660;2024-02-28T05:55:55;99139.44;;;7.48;90.37
84289;BME280;75147;50.294;18.660;2024-02-28T05:58:22;99136.88;;;7.48;90.22
84289;BME280;75147;50.294;18.660;2024-02-28T06:00:47;99134.28;;;7.48;90.22
84289;BME280;75147;50.294;18.660;2024-02-28T06:03:13;99136.88;;;7.48;90.38
84289;BME280;75147;50.294;18.660;2024-02-28T06:05:38;99137.78;;;7.47;90.39
84289;BME280;75147;50.294;18.660;2024-02-28T06:08:04;99132.50;;;7.48;90.39
84289;BME280;75147;50.294;18.660;2024-02-28T06:10:29;99141.38;;;7.44;90.15
84289;BME280;75147;50.294;18.660;2024-02-28T06:12:55;99139.72;;;7.43;90.29
84289;BME280;75147;50.294;18.660;2024-02-28T06:15:20;99142.53;;;7.40;90.14
84289;BME280;75147;50.294;18.660;2024-02-28T06:17:45;99139.13;;;7.40;90.37
84289;BME280;75147;50.294;18.660;2024-02-28T06:20:11;99148.53;;;7.41;90.65
84289;BME280;75147;50.294;18.660;2024-02-28T06:22:37;99141.88;;;7.37;90.41
84289;BME280;75147;50.294;18.660;2024-02-28T06:25:02;99146.22;;;7.36;90.80
84289;BME280;75147;50.294;18.660;2024-02-28T06:27:32;99147.97;;;7.36;90.69
84289;BME280;75147;50.294;18.660;2024-02-28T06:29:59;99159.16;;;7.36;90.80
84289;BME280;75147;50.294;18.660;2024-02-28T06:32:24;99161.22;;;7.31;90.49
84289;BME280;75147;50.294;18.660;2024-02-28T06:34:50;99153.47;;;7.31;90.63
84289;BME280;75147;50.294;18.660;2024-02-28T06:37:16;99162.88;;;7.32;90.49
84289;BME280;75147;50.294;18.660;2024-02-28T06:39:41;99162.78;;;7.34;90.93
84289;BME280;75147;50.294;18.660;2024-02-28T06:42:07;99173.00;;;7.35;90.43
84289;BME280;75147;50.294;18.660;2024-02-28T06:44:32;99177.22;;;7.36;90.36
84289;BME280;75147;50.294;18.660;2024-02-28T06:46:58;99168.56;;;7.37;90.57
84289;BME280;75147;50.294;18.660;2024-02-28T06:49:23;99167.72;;;7.37;90.71
84289;BME280;75147;50.294;18.660;2024-02-28T06:51:49;99172.63;;;7.41;90.75
84289;BME280;75147;50.294;18.660;2024-02-28T06:54:15;99166.72;;;7.39;90.47
84289;BME280;75147;50.294;18.660;2024-02-28T06:56:40;99170.97;;;7.40;90.71
84289;BME280;75147;50.294;18.660;2024-02-28T06:59:05;99173.53;;;7.40;90.58
84289;BME280;75147;50.294;18.660;2024-02-28T07:01:32;99174.47;;;7.39;90.80
84289;BME280;75147;50.294;18.660;2024-02-28T07:03:58;99179.72;;;7.38;90.66
84289;BME280;75147;50.294;18.660;2024-02-28T07:06:23;99179.53;;;7.41;90.60
84289;BME280;75147;50.294;18.660;2024-02-28T07:08:49;99187.16;;;7.42;90.78
84289;BME280;75147;50.294;18.660;2024-02-28T07:11:14;99195.75;;;7.43;90.67
84289;BME280;75147;50.294;18.660;2024-02-28T07:13:40;99192.34;;;7.42;90.30
84289;BME280;75147;50.294;18.660;2024-02-28T07:16:06;99183.75;;;7.42;90.20
84289;BME280;75147;50.294;18.660;2024-02-28T07:18:32;99192.97;;;7.46;90.14
84289;BME280;75147;50.294;18.660;2024-02-28T07:20:57;99201.25;;;7.51;89.90
84289;BME280;75147;50.294;18.660;2024-02-28T07:23:23;99203.75;;;7.52;90.05
84289;BME280;75147;50.294;18.660;2024-02-28T07:25:49;99206.25;;;7.54;90.33
84289;BME280;75147;50.294;18.660;2024-02-28T07:28:15;99203.66;;;7.54;89.94
84289;BME280;75147;50.294;18.660;2024-02-28T07:30:40;99209.75;;;7.53;89.79
84289;BME280;75147;50.294;18.660;2024-02-28T07:33:06;99214.81;;;7.54;89.51
84289;BME280;75147;50.294;18.660;2024-02-28T07:35:31;99207.06;;;7.54;89.63
84289;BME280;75147;50.294;18.660;2024-02-28T07:37:56;99206.94;;;7.56;90.22
84289;BME280;75147;50.294;18.660;2024-02-28T07:40:22;99199.00;;;7.59;90.25
84289;BME280;75147;50.294;18.660;2024-02-28T07:42:47;99195.59;;;7.58;90.41
84289;BME280;75147;50.294;18.660;2024-02-28T07:45:13;99201.69;;;7.57;90.16
84289;BME280;75147;50.294;18.660;2024-02-28T07:47:39;99197.25;;;7.59;89.98
84289;BME280;75147;50.294;18.660;2024-02-28T07:50:06;99196.41;;;7.59;90.44
84289;BME280;75147;50.294;18.660;2024-02-28T07:52:32;99189.59;;;7.58;89.88
84289;BME280;75147;50.294;18.660;2024-02-28T07:55:00;99199.63;;;7.63;89.97
84289;BME280;75147;50.294;18.660;2024-02-28T07:57:26;99197.78;;;7.65;89.95
84289;BME280;75147;50.294;18.660;2024-02-28T07:59:52;99204.28;;;7.70;89.91
84289;BME280;75147;50.294;18.660;2024-02-28T08:02:17;99205.94;;;7.71;90.07
84289;BME280;75147;50.294;18.660;2024-02-28T08:04:45;99204.94;;;7.74;90.33
84289;BME280;75147;50.294;18.660;2024-02-28T08:07:10;99204.72;;;7.77;89.94
84289;BME280;75147;50.294;18.660;2024-02-28T08:09:36;99214.75;;;7.81;90.15
84289;BME280;75147;50.294;18.660;2024-02-28T08:12:01;99216.53;;;7.81;89.78
84289;BME280;75147;50.294;18.660;2024-02-28T08:14:27;99212.91;;;7.83;89.96
84289;BME280;75147;50.294;18.660;2024-02-28T08:16:52;99210.31;;;7.83;89.85
84289;BME280;75147;50.294;18.660;2024-02-28T08:19:18;99212.69;;;7.86;89.63
84289;BME280;75147;50.294;18.660;2024-02-28T08:21:43;99218.47;;;7.90;89.10
84289;BME280;75147;50.294;18.660;2024-02-28T08:24:09;99218.28;;;7.93;89.36
84289;BME280;75147;50.294;18.660;2024-02-28T08:26:35;99217.47;;;7.92;88.94
84289;BME280;75147;50.294;18.660;2024-02-28T08:29:01;99213.94;;;7.93;89.34
84289;BME280;75147;50.294;18.660;2024-02-28T08:31:27;99216.41;;;7.95;88.53
84289;BME280;75147;50.294;18.660;2024-02-28T08:33:52;99216.31;;;7.96;89.10
84289;BME280;75147;50.294;18.660;2024-02-28T08:36:18;99215.06;;;8.02;88.69
84289;BME280;75147;50.294;18.660;2024-02-28T08:38:43;99222.53;;;8.07;88.98
84289;BME280;75147;50.294;18.660;2024-02-28T08:41:09;99216.97;;;8.13;88.28
84289;BME280;75147;50.294;18.660;2024-02-28T08:43:39;99207.94;;;8.18;88.72
84289;BME280;75147;50.294;18.660;2024-02-28T08:46:05;99222.03;;;8.27;88.40
84289;BME280;75147;50.294;18.660;2024-02-28T08:48:31;99217.41;;;8.32;88.68
84289;BME280;75147;50.294;18.660;2024-02-28T08:50:56;99216.25;;;8.36;88.22
84289;BME280;75147;50.294;18.660;2024-02-28T08:53:22;99213.03;;;8.45;88.06
84289;BME280;75147;50.294;18.660;2024-02-28T08:55:47;99219.44;;;8.52;87.69
84289;BME280;75147;50.294;18.660;2024-02-28T08:58:12;99227.91;;;8.54;87.94
84289;BME280;75147;50.294;18.660;2024-02-28T09:00:38;99234.22;;;8.63;87.54
84289;BME280;75147;50.294;18.660;2024-02-28T09:03:04;99236.47;;;8.67;87.59
84289;BME280;75147;50.294;18.660;2024-02-28T09:05:29;99231.00;;;8.72;87.23
84289;BME280;75147;50.294;18.660;2024-02-28T09:07:55;99223.00;;;8.75;87.23
84289;BME280;75147;50.294;18.660;2024-02-28T09:10:22;99238.13;;;8.81;87.17
84289;BME280;75147;50.294;18.660;2024-02-28T09:12:50;99226.81;;;8.82;87.01
84289;BME280;75147;50.294;18.660;2024-02-28T09:15:15;99234.06;;;8.90;86.93
84289;BME280;75147;50.294;18.660;2024-02-28T09:17:40;99241.72;;;8.91;86.14
84289;BME280;75147;50.294;18.660;2024-02-28T09:20:06;99243.06;;;8.97;86.30
84289;BME280;75147;50.294;18.660;2024-02-28T09:22:33;99246.25;;;9.00;85.75
84289;BME280;75147;50.294;18.660;2024-02-28T09:25:00;99253.09;;;9.01;86.14
84289;BME280;75147;50.294;18.660;2024-02-28T09:27:26;99240.25;;;9.00;85.86
84289;BME280;75147;50.294;18.660;2024-02-28T09:29:51;99253.09;;;9.01;85.35
84289;BME280;75147;50.294;18.660;2024-02-28T09:32:16;99254.03;;;9.00;85.43
84289;BME280;75147;50.294;18.660;2024-02-28T09:34:43;99266.88;;;9.02;85.09
84289;BME280;75147;50.294;18.660;2024-02-28T09:37:09;99264.19;;;9.03;84.98
84289;BME280;75147;50.294;18.660;2024-02-28T09:39:34;99258.16;;;9.03;84.60
84289;BME280;75147;50.294;18.660;2024-02-28T09:42:00;99257.25;;;9.04;85.14
84289;BME280;75147;50.294;18.660;2024-02-28T09:44:25;99266.78;;;9.03;84.94
84289;BME280;75147;50.294;18.660;2024-02-28T09:46:51;99270.19;;;9.04;84.95
84289;BME280;75147;50.294;18.660;2024-02-28T09:49:18;99264.91;;;9.05;85.52
84289;BME280;75147;50.294;18.660;2024-02-28T09:51:44;99263.13;;;9.06;85.64
84289;BME280;75147;50.294;18.660;2024-02-28T09:54:09;99261.50;;;9.05;85.41
84289;BME280;75147;50.294;18.660;2024-02-28T09:56:35;99275.97;;;9.07;85.49
84289;BME280;75147;50.294;18.660;2024-02-28T09:59:00;99278.66;;;9.06;85.84
84289;BME280;75147;50.294;18.660;2024-02-28T10:01:28;99278.56;;;9.07;85.31
84289;BME280;75147;50.294;18.660;2024-02-28T10:03:55;99285.31;;;9.10;85.85
84289;BME280;75147;50.294;18.660;2024-02-28T10:06:22;99278.38;;;9.10;85.44
84289;BME280;75147;50.294;18.660;2024-02-28T10:08:48;99286.34;;;9.07;86.43
84289;BME280;75147;50.294;18.660;2024-02-28T10:11:23;99296.31;;;9.01;86.25
84289;BME280;75147;50.294;18.660;2024-02-28T10:13:49;99293.81;;;8.99;86.63
84289;BME280;75147;50.294;18.660;2024-02-28T10:16:15;99292.38;;;8.95;86.70
84289;BME280;75147;50.294;18.660;2024-02-28T10:18:42;99298.41;;;8.96;86.75
84289;BME280;75147;50.294;18.660;2024-02-28T10:21:08;99296.63;;;8.96;86.58
84289;BME280;75147;50.294;18.660;2024-02-28T10:23:33;99296.41;;;8.99;86.55
84289;BME280;75147;50.294;18.660;2024-02-28T10:26:00;99297.38;;;8.98;86.66
84289;BME280;75147;50.294;18.660;2024-02-28T10:28:26;99294.88;;;8.97;86.83
84289;BME280;75147;50.294;18.660;2024-02-28T10:30:53;99303.38;;;8.99;86.53
84289;BME280;75147;50.294;18.660;2024-02-28T10:33:19;99306.66;;;9.01;86.54
84289;BME280;75147;50.294;18.660;2024-02-28T10:35:44;99299.72;;;9.01;86.52
84289;BME280;75147;50.294;18.660;2024-02-28T10:38:11;99310.59;;;9.06;85.87
84289;BME280;75147;50.294;18.660;2024-02-28T10:40:37;99306.25;;;9.07;85.74
84289;BME280;75147;50.294;18.660;2024-02-28T10:43:03;99306.13;;;9.08;85.83
84289;BME280;75147;50.294;18.660;2024-02-28T10:45:38;99308.00;;;9.06;85.50
84289;BME280;75147;50.294;18.660;2024-02-28T10:48:04;99319.81;;;9.10;85.55
84289;BME280;75147;50.294;18.660;2024-02-28T10:50:30;99319.53;;;9.02;85.22
84289;BME280;75147;50.294;18.660;2024-02-28T10:53:02;99316.09;;;9.02;85.35
84289;BME280;75147;50.294;18.660;2024-02-28T10:55:32;99312.69;;;9.01;85.62
84289;BME280;75147;50.294;18.660;2024-02-28T10:58:03;99311.16;;;8.99;85.54
84289;BME280;75147;50.294;18.660;2024-02-28T11:00:33;99310.31;;;8.98;85.54
84289;BME280;75147;50.294;18.660;2024-02-28T11:03:00;99311.84;;;9.01;85.82
84289;BME280;75147;50.294;18.660;2024-02-28T11:05:41;99314.44;;;9.01;85.41
84289;BME280;75147;50.294;18.660;2024-02-28T11:08:11;99314.44;;;9.01;85.16
84289;BME280;75147;50.294;18.660;2024-02-28T11:10:43;99311.84;;;9.01;85.23
84289;BME280;75147;50.294;18.660;2024-02-28T11:13:09;99312.59;;;9.03;85.28
84289;BME280;75147;50.294;18.660;2024-02-28T11:15:36;99316.00;;;9.03;85.05
84289;BME280;75147;50.294;18.660;2024-02-28T11:18:11;99315.78;;;9.06;85.47
84289;BME280;75147;50.294;18.660;2024-02-28T11:20:38;99315.66;;;9.08;84.81
84289;BME280;75147;50.294;18.660;2024-02-28T11:23:06;99314.16;;;9.05;85.21
84289;BME280;75147;50.294;18.660;2024-02-28T11:25:31;99314.75;;;9.09;85.14
84289;BME280;75147;50.294;18.660;2024-02-28T11:27:57;99314.84;;;9.07;84.99
84289;BME280;75147;50.294;18.660;2024-02-28T11:30:22;99310.50;;;9.08;85.21
84289;BME280;75147;50.294;18.660;2024-02-28T11:32:55;99310.38;;;9.09;85.26
84289;BME280;75147;50.294;18.660;2024-02-28T11:35:22;99319.00;;;9.10;85.33
84289;BME280;75147;50.294;18.660;2024-02-28T11:37:49;99313.72;;;9.11;84.88
84289;BME280;75147;50.294;18.660;2024-02-28T11:40:14;99313.59;;;9.13;84.91
84289;BME280;75147;50.294;18.660;2024-02-28T11:42:40;99316.16;;;9.13;84.79
84289;BME280;75147;50.294;18.660;2024-02-28T11:45:05;99319.72;;;9.12;84.50
84289;BME280;75147;50.294;18.660;2024-02-28T11:47:35;99321.34;;;9.13;85.00
84289;BME280;75147;50.294;18.660;2024-02-28T11:50:01;99322.00;;;9.16;84.58
84289;BME280;75147;50.294;18.660;2024-02-28T11:52:27;99318.66;;;9.14;85.17
84289;BME280;75147;50.294;18.660;2024-02-28T11:54:52;99318.06;;;9.11;84.79
84289;BME280;75147;50.294;18.660;2024-02-28T11:57:19;99325.09;;;9.09;85.34
84289;BME280;75147;50.294;18.660;2024-02-28T11:59:44;99320.13;;;9.06;84.97
84289;BME280;75147;50.294;18.660;2024-02-28T12:02:14;99327.19;;;9.04;85.16
84289;BME280;75147;50.294;18.660;2024-02-28T12:04:41;99320.69;;;8.98;85.46
84289;BME280;75147;50.294;18.660;2024-02-28T12:07:08;99325.75;;;9.00;85.47
84289;BME280;75147;50.294;18.660;2024-02-28T12:09:33;99322.31;;;8.99;85.34
84289;BME280;75147;50.294;18.660;2024-02-28T12:12:03;99325.03;;;8.98;85.26
84289;BME280;75147;50.294;18.660;2024-02-28T12:14:32;99328.47;;;8.98;85.85
84289;BME280;75147;50.294;18.660;2024-02-28T12:16:58;99330.22;;;8.98;85.73
84289;BME280;75147;50.294;18.660;2024-02-28T12:19:24;99335.41;;;8.98;85.42
84289;BME280;75147;50.294;18.660;2024-02-28T12:21:49;99345.97;;;8.95;85.86
84289;BME280;75147;50.294;18.660;2024-02-28T12:24:15;99336.53;;;8.94;85.35
84289;BME280;75147;50.294;18.660;2024-02-28T12:26:40;99340.78;;;8.95;85.51
84289;BME280;75147;50.294;18.660;2024-02-28T12:29:07;99339.00;;;8.95;85.48
84289;BME280;75147;50.294;18.660;2024-02-28T12:31:32;99350.94;;;8.98;85.87
84289;BME280;75147;50.294;18.660;2024-02-28T12:33:58;99342.94;;;9.01;85.91
84289;BME280;75147;50.294;18.660;2024-02-28T12:36:24;99337.47;;;9.05;85.21
84289;BME280;75147;50.294;18.660;2024-02-28T12:38:50;99339.81;;;9.08;85.35
84289;BME280;75147;50.294;18.660;2024-02-28T12:41:16;99339.50;;;9.13;84.95
84289;BME280;75147;50.294;18.660;2024-02-28T12:43:42;99338.56;;;9.14;85.30
84289;BME280;75147;50.294;18.660;2024-02-28T12:46:08;99340.13;;;9.16;84.80
84289;BME280;75147;50.294;18.660;2024-02-28T12:48:37;99340.03;;;9.18;84.86
84289;BME280;75147;50.294;18.660;2024-02-28T12:51:04;99345.91;;;9.20;85.11
84289;BME280;75147;50.294;18.660;2024-02-28T12:53:30;99346.44;;;9.25;84.73